createdAt,value
2018-02-25T00:01:12.878Z,38.10
2018-02-25T00:03:46.825Z,37.90
2018-02-25T00:06:21.034Z,38.50
2018-02-25T00:08:55.702Z,38.20
2018-02-25T00:11:30.781Z,38.60
2018-02-25T00:14:04.582Z,38.40
2018-02-25T00:16:38.945Z,38.40
2018-02-25T00:19:12.887Z,38.40
2018-02-25T00:21:47.380Z,37.30
2018-02-25T00:24:21.663Z,37.30
2018-02-25T00:26:55.671Z,38.10
2018-02-25T00:29:30.369Z,37.30
2018-02-25T00:32:04.288Z,37.30
2018-02-25T00:34:38.116Z,37.30
2018-02-25T00:37:13.638Z,38.20
2018-02-25T00:39:47.293Z,38.20
2018-02-25T00:42:21.130Z,37.50
2018-02-25T00:44:55.194Z,37.00
2018-02-25T00:47:29.970Z,37.60
2018-02-25T00:50:03.950Z,38.30
2018-02-25T00:52:38.238Z,37.40
2018-02-25T00:55:12.274Z,36.70
2018-02-25T00:57:46.462Z,37.10
2018-02-25T01:00:21.124Z,36.60
2018-02-25T01:02:54.746Z,35.80
2018-02-25T01:05:28.862Z,37.00
2018-02-25T01:08:02.873Z,37.30
2018-02-25T01:10:36.948Z,37.10
2018-02-25T01:13:10.701Z,37.10
2018-02-25T01:15:45.421Z,35.30
2018-02-25T01:18:19.522Z,35.20
2018-02-25T01:20:53.578Z,37.80
2018-02-25T01:23:27.986Z,36.70
2018-02-25T01:26:01.681Z,37.30
2018-02-25T01:28:35.692Z,36.70
2018-02-25T01:31:10.272Z,37.00
2018-02-25T01:33:44.110Z,36.40
2018-02-25T01:36:18.925Z,37.10
2018-02-25T01:38:52.844Z,37.10
2018-02-25T01:41:27.546Z,36.80
2018-02-25T01:44:01.407Z,36.70
2018-02-25T01:46:35.221Z,36.40
2018-02-25T01:49:08.872Z,38.00
2018-02-25T01:51:42.934Z,37.90
2018-02-25T01:54:17.494Z,37.90
2018-02-25T01:56:53.145Z,37.50
2018-02-25T01:59:27.756Z,37.40
2018-02-25T02:02:01.845Z,37.30
2018-02-25T02:04:36.361Z,37.30
2018-02-25T02:07:10.887Z,37.20
2018-02-25T02:09:45.025Z,37.20
2018-02-25T02:12:18.713Z,38.00
2018-02-25T02:14:52.626Z,38.60
2018-02-25T02:17:29.596Z,37.80
2018-02-25T02:20:04.181Z,37.80
2018-02-25T02:22:38.630Z,38.10
2018-02-25T02:25:12.543Z,38.30
2018-02-25T02:27:46.619Z,39.00
2018-02-25T02:30:21.761Z,39.80
2018-02-25T02:32:56.039Z,39.40
2018-02-25T02:35:30.156Z,39.40
2018-02-25T02:38:04.012Z,39.30
2018-02-25T02:40:38.150Z,39.60
2018-02-25T02:43:12.294Z,39.10
2018-02-25T02:45:47.563Z,40.50
2018-02-25T02:48:21.611Z,40.50
2018-02-25T02:50:56.491Z,39.00
2018-02-25T02:53:31.337Z,39.60
2018-02-25T02:56:06.158Z,38.20
2018-02-25T02:58:40.400Z,38.20
2018-02-25T03:01:15.075Z,38.90
2018-02-25T03:03:49.772Z,39.00
2018-02-25T03:06:23.728Z,39.70
2018-02-25T03:08:58.411Z,39.60
2018-02-25T03:11:32.393Z,39.80
2018-02-25T03:14:06.205Z,40.10
2018-02-25T03:16:41.492Z,41.10
2018-02-25T03:19:15.622Z,41.10
2018-02-25T03:21:50.098Z,40.50
2018-02-25T03:24:23.893Z,39.40
2018-02-25T03:26:57.697Z,40.00
2018-02-25T03:29:31.554Z,39.20
2018-02-25T03:32:06.888Z,39.30
2018-02-25T03:34:41.930Z,38.80
2018-02-25T03:37:15.799Z,38.80
2018-02-25T03:39:49.623Z,39.50
2018-02-25T03:42:23.467Z,40.20
2018-02-25T03:44:58.740Z,39.60
2018-02-25T03:47:32.549Z,40.00
2018-02-25T03:50:06.202Z,39.80
2018-02-25T03:52:39.822Z,40.50
2018-02-25T03:55:13.641Z,40.90
2018-02-25T03:57:47.402Z,40.80
2018-02-25T04:00:21.323Z,39.40
2018-02-25T04:02:55.828Z,39.50
2018-02-25T04:05:30.031Z,39.40
2018-02-25T04:08:03.781Z,39.30
2018-02-25T04:10:37.890Z,39.80
2018-02-25T04:13:12.698Z,39.60
2018-02-25T04:15:46.766Z,39.60
2018-02-25T04:18:20.422Z,40.00
2018-02-25T04:20:55.353Z,38.80
2018-02-25T04:23:29.216Z,38.70
2018-02-25T04:26:03.182Z,39.70
2018-02-25T04:28:37.329Z,39.80
2018-02-25T04:31:12.012Z,39.50
2018-02-25T04:33:46.033Z,39.50
2018-02-25T04:36:19.970Z,40.00
2018-02-25T04:38:53.902Z,40.70
2018-02-25T04:41:27.782Z,39.80
2018-02-25T04:44:01.513Z,40.10
2018-02-25T04:46:35.375Z,40.20
2018-02-25T04:49:09.101Z,40.40
2018-02-25T04:51:43.778Z,41.00
2018-02-25T04:54:18.594Z,40.90
2018-02-25T04:56:52.963Z,40.90
2018-02-25T04:59:26.643Z,41.60
2018-02-25T05:02:01.252Z,41.40
2018-02-25T05:04:35.454Z,41.40
2018-02-25T05:07:09.336Z,42.00
2018-02-25T05:09:43.136Z,41.50
2018-02-25T05:12:17.805Z,40.50
2018-02-25T05:14:52.745Z,40.60
2018-02-25T05:17:27.057Z,40.60
2018-02-25T05:20:01.682Z,41.60
2018-02-25T05:22:35.529Z,41.50
2018-02-25T05:25:09.436Z,41.70
2018-02-25T05:27:44.019Z,41.80
2018-02-25T05:30:18.389Z,41.70
2018-02-25T05:32:52.598Z,41.60
2018-02-25T05:35:26.204Z,41.50
2018-02-25T05:38:00.267Z,42.10
2018-02-25T05:40:34.755Z,42.10
2018-02-25T05:43:08.950Z,42.10
2018-02-25T05:45:42.733Z,42.50
2018-02-25T05:48:17.343Z,41.90
2018-02-25T05:50:51.562Z,41.90
2018-02-25T05:53:26.293Z,43.00
2018-02-25T06:03:47.944Z,42.00
2018-02-25T06:06:22.068Z,41.80
2018-02-25T06:08:56.131Z,41.70
2018-02-25T06:11:30.669Z,42.10
2018-02-25T06:14:04.550Z,42.50
2018-02-25T06:16:38.203Z,42.70
2018-02-25T06:19:12.826Z,41.90
2018-02-25T06:21:47.317Z,42.70
2018-02-25T06:24:21.972Z,42.40
2018-02-25T06:26:57.339Z,42.70
2018-02-25T06:29:31.883Z,42.60
2018-02-25T06:32:06.263Z,42.40
2018-02-25T06:34:40.256Z,41.50
2018-02-25T06:37:14.881Z,41.80
2018-02-25T06:39:49.482Z,42.00
2018-02-25T06:42:23.396Z,41.20
2018-02-25T06:44:57.324Z,41.20
2018-02-25T06:47:31.730Z,41.70
2018-02-25T06:50:05.888Z,41.70
2018-02-25T06:52:40.484Z,42.00
2018-02-25T06:55:14.745Z,41.90
2018-02-25T06:57:48.408Z,41.80
2018-02-25T07:00:22.411Z,41.80
2018-02-25T07:02:56.815Z,41.10
2018-02-25T07:05:31.573Z,41.10
2018-02-25T07:08:05.701Z,41.00
2018-02-25T07:10:40.528Z,41.50
2018-02-25T07:13:14.533Z,41.50
2018-02-25T07:15:49.267Z,41.20
2018-02-25T07:18:23.415Z,41.20
2018-02-25T07:20:58.814Z,40.50
2018-02-25T07:23:32.817Z,40.40
2018-02-25T07:26:06.712Z,40.60
2018-02-25T07:28:40.493Z,41.20
2018-02-25T07:31:14.191Z,41.00
2018-02-25T07:33:48.058Z,40.90
2018-02-25T07:36:21.964Z,41.10
2018-02-25T07:38:56.751Z,40.60
2018-02-25T07:41:31.341Z,40.60
2018-02-25T07:44:05.481Z,40.60
2018-02-25T07:46:39.451Z,40.50
2018-02-25T07:49:13.383Z,40.60
2018-02-25T07:51:47.957Z,39.70
2018-02-25T07:54:22.235Z,39.70
2018-02-25T07:56:56.138Z,39.70
2018-02-25T07:59:30.001Z,39.80
2018-02-25T08:02:03.834Z,39.70
2018-02-25T08:04:37.555Z,39.00
2018-02-25T08:07:12.120Z,39.30
2018-02-25T08:09:46.019Z,39.20
2018-02-25T08:12:19.872Z,39.30
2018-02-25T08:14:53.749Z,39.00
2018-02-25T08:17:27.928Z,38.30
2018-02-25T08:20:01.883Z,37.80
2018-02-25T08:22:35.662Z,37.40
2018-02-25T08:25:11.061Z,37.40
2018-02-25T08:27:45.459Z,37.20
2018-02-25T08:30:19.292Z,37.10
2018-02-25T08:32:53.019Z,37.20
2018-02-25T08:35:26.771Z,37.50
2018-02-25T08:38:00.545Z,36.80
2018-02-25T08:40:35.150Z,36.20
2018-02-25T08:43:09.548Z,36.20
2018-02-25T08:45:43.494Z,36.00
2018-02-25T08:48:18.002Z,35.80
2018-02-25T08:50:52.030Z,35.10
2018-02-25T08:53:25.978Z,34.40
2018-02-25T08:55:59.598Z,34.30
2018-02-25T08:58:33.263Z,34.60
2018-02-25T09:01:07.088Z,34.00
2018-02-25T09:03:40.897Z,33.40
2018-02-25T09:06:14.755Z,34.30
2018-02-25T09:08:49.382Z,33.80
2018-02-25T09:11:23.451Z,33.70
2018-02-25T09:13:58.171Z,33.50
2018-02-25T09:16:31.902Z,32.80
2018-02-25T09:19:05.971Z,33.20
2018-02-25T09:21:39.644Z,32.90
2018-02-25T09:24:14.271Z,32.70
2018-02-25T09:26:48.274Z,32.70
2018-02-25T09:29:22.796Z,30.90
2018-02-25T09:31:57.111Z,30.90
2018-02-25T09:34:31.676Z,29.90
2018-02-25T09:37:06.354Z,27.20
2018-02-25T09:39:41.282Z,27.10
2018-02-25T09:42:15.877Z,27.40
2018-02-25T09:44:49.917Z,27.40
2018-02-25T09:47:24.626Z,28.00
2018-02-25T09:49:59.921Z,28.40
2018-02-25T09:52:34.159Z,28.30
2018-02-25T09:55:08.850Z,29.50
2018-02-25T09:57:42.572Z,29.40
2018-02-25T10:00:16.468Z,28.50
2018-02-25T10:02:50.115Z,28.80
2018-02-25T10:05:24.680Z,28.10
2018-02-25T10:07:59.019Z,28.00
2018-02-25T10:10:33.548Z,27.30
2018-02-25T10:13:08.422Z,27.20
2018-02-25T10:15:42.642Z,27.20
2018-02-25T10:18:20.249Z,27.40
2018-02-25T10:20:54.432Z,27.50
2018-02-25T10:23:28.567Z,27.70
2018-02-25T10:26:03.625Z,26.30
2018-02-25T10:28:37.437Z,26.30
2018-02-25T10:31:11.318Z,26.50
2018-02-25T10:33:46.796Z,26.00
2018-02-25T10:36:21.205Z,25.90
2018-02-25T10:38:55.587Z,26.20
2018-02-25T10:41:29.654Z,26.10
2018-02-25T10:44:03.422Z,25.90
2018-02-25T10:46:38.078Z,25.50
2018-02-25T10:49:12.443Z,25.00
2018-02-25T10:51:47.314Z,25.20
2018-02-25T10:54:22.210Z,25.20
2018-02-25T10:56:56.233Z,25.50
2018-02-25T10:59:31.000Z,24.80
2018-02-25T11:02:06.211Z,25.00
2018-02-25T11:04:41.668Z,25.80
2018-02-25T11:07:15.756Z,25.80
2018-02-25T11:09:50.493Z,25.00
2018-02-25T11:12:25.090Z,25.00
2018-02-25T11:14:59.831Z,24.70
2018-02-25T11:17:34.764Z,25.40
2018-02-25T11:20:10.489Z,24.40
2018-02-25T11:22:44.985Z,24.40
2018-02-25T11:25:19.462Z,23.70
2018-02-25T11:27:53.382Z,23.70
2018-02-25T11:30:27.857Z,23.60
2018-02-25T11:33:01.890Z,23.60
2018-02-25T11:35:35.791Z,23.80
2018-02-25T11:38:09.602Z,24.10
2018-02-25T11:40:43.485Z,24.60
2018-02-25T11:43:17.239Z,24.40
2018-02-25T11:45:51.347Z,24.70
2018-02-25T11:48:26.685Z,23.50
2018-02-25T11:51:01.373Z,23.30
2018-02-25T11:53:35.618Z,23.20
2018-02-25T11:56:09.476Z,22.70
2018-02-25T11:58:44.590Z,24.20
2018-02-25T12:01:19.041Z,23.40
2018-02-25T12:03:53.549Z,23.40
2018-02-25T12:06:27.970Z,23.90
2018-02-25T12:09:02.295Z,23.70
2018-02-25T12:11:36.773Z,23.20
2018-02-25T12:14:11.125Z,23.80
2018-02-25T12:16:45.152Z,23.10
2018-02-25T12:19:19.267Z,23.40
2018-02-25T12:21:53.847Z,23.90
2018-02-25T12:24:27.905Z,23.10
2018-02-25T12:27:01.922Z,23.00
2018-02-25T12:29:36.534Z,22.90
2018-02-25T12:32:11.311Z,23.40
2018-02-25T12:34:45.375Z,23.30
2018-02-25T12:37:19.175Z,22.20
2018-02-25T12:39:53.022Z,22.30
2018-02-25T12:42:26.771Z,22.20
2018-02-25T12:45:00.658Z,22.00
2018-02-25T12:47:34.547Z,22.50
2018-02-25T12:50:08.417Z,22.10
2018-02-25T12:52:43.131Z,22.10
2018-02-25T12:55:18.018Z,21.50
2018-02-25T12:57:52.003Z,21.40
2018-02-25T13:00:26.531Z,21.30
2018-02-25T13:03:00.663Z,21.20
2018-02-25T13:05:34.582Z,21.00
2018-02-25T13:08:08.804Z,21.40
2018-02-25T13:10:43.304Z,21.80
2018-02-25T13:13:17.325Z,22.20
2018-02-25T13:15:51.403Z,22.30
2018-02-25T13:18:25.678Z,23.10
2018-02-25T13:21:00.056Z,23.10
2018-02-25T13:23:34.022Z,23.10
2018-02-25T13:26:07.775Z,22.70
2018-02-25T13:28:42.211Z,22.30
2018-02-25T13:31:16.515Z,22.80
2018-02-25T13:33:51.422Z,21.90
2018-02-25T13:36:26.792Z,22.40
2018-02-25T13:39:01.216Z,22.30
2018-02-25T13:41:35.515Z,21.60
2018-02-25T13:44:09.449Z,22.00
2018-02-25T13:46:44.149Z,21.80
2018-02-25T13:49:18.168Z,21.80
2018-02-25T13:51:52.115Z,21.90
2018-02-25T13:54:26.573Z,21.80
2018-02-25T13:57:00.741Z,21.80
2018-02-25T13:59:34.350Z,20.90
2018-02-25T14:02:08.314Z,22.30
2018-02-25T14:04:42.025Z,22.20
2018-02-25T14:07:16.682Z,22.60
2018-02-25T14:09:50.810Z,22.60
2018-02-25T14:12:24.585Z,22.30
2018-02-25T14:14:58.967Z,22.60
2018-02-25T14:17:33.821Z,22.30
2018-02-25T14:20:08.532Z,22.20
2018-02-25T14:22:43.651Z,22.30
2018-02-25T14:25:18.090Z,22.20
2018-02-25T14:27:53.025Z,22.20
2018-02-25T14:30:27.178Z,22.10
2018-02-25T14:33:01.353Z,21.30
2018-02-25T14:35:35.568Z,21.10
2018-02-25T14:38:09.835Z,21.60
2018-02-25T14:40:44.219Z,21.30
2018-02-25T14:43:18.519Z,21.00
2018-02-25T14:45:52.531Z,21.00
2018-02-25T14:48:26.284Z,21.40
2018-02-25T14:51:01.049Z,19.90
2018-02-25T14:53:35.575Z,19.90
2018-02-25T14:56:09.290Z,19.70
2018-02-25T14:58:43.346Z,19.60
2018-02-25T15:01:17.886Z,20.10
2018-02-25T15:03:52.136Z,19.40
2018-02-25T15:06:26.045Z,19.10
2018-02-25T15:08:59.832Z,18.60
2018-02-25T15:11:34.340Z,18.70
2018-02-25T15:14:08.445Z,18.70
2018-02-25T15:16:42.258Z,19.10
2018-02-25T15:19:16.042Z,19.50
2018-02-25T15:21:49.825Z,19.40
2018-02-25T15:24:23.955Z,19.60
2018-02-25T15:26:58.362Z,18.60
2018-02-25T15:29:32.300Z,18.20
2018-02-25T15:32:06.197Z,19.60
2018-02-25T15:34:41.184Z,21.10
2018-02-25T15:37:15.404Z,21.00
2018-02-25T15:39:50.232Z,19.80
2018-02-25T15:42:24.141Z,19.80
2018-02-25T15:44:58.801Z,20.20
2018-02-25T15:47:33.370Z,20.10
2018-02-25T15:50:07.397Z,20.00
2018-02-25T15:52:42.507Z,20.30
2018-02-25T15:55:17.979Z,20.60
2018-02-25T15:57:52.461Z,20.60
2018-02-25T16:00:27.123Z,20.80
2018-02-25T16:03:01.497Z,21.10
2018-02-25T16:05:36.741Z,21.80
2018-02-25T16:08:10.669Z,21.80
2018-02-25T16:10:44.466Z,21.10
2018-02-25T16:13:18.108Z,21.60
2018-02-25T16:15:52.142Z,21.60
2018-02-25T16:18:25.987Z,22.00
2018-02-25T16:20:59.771Z,22.20
2018-02-25T16:23:33.438Z,22.50
2018-02-25T16:26:08.169Z,23.90
2018-02-25T16:28:41.801Z,23.90
2018-02-25T16:31:15.609Z,23.50
2018-02-25T16:33:50.218Z,24.00
2018-02-25T16:36:24.941Z,23.70
2018-02-25T16:38:59.514Z,23.30
2018-02-25T16:41:33.427Z,23.30
2018-02-25T16:44:08.458Z,24.00
2018-02-25T16:46:42.186Z,24.00
2018-02-25T16:49:16.896Z,23.50
2018-02-25T16:51:51.946Z,23.70
2018-02-25T16:54:25.865Z,23.70
2018-02-25T16:57:00.690Z,23.60
2018-02-25T16:59:34.925Z,24.10
2018-02-25T17:02:08.645Z,24.10
2018-02-25T17:04:42.640Z,24.30
2018-02-25T17:07:16.767Z,24.00
2018-02-25T17:09:51.337Z,24.50
2018-02-25T17:12:25.461Z,24.70
2018-02-25T17:14:59.399Z,24.30
2018-02-25T17:17:33.410Z,24.40
2018-02-25T17:20:07.966Z,24.90
2018-02-25T17:22:42.071Z,24.80
2018-02-25T17:25:15.674Z,24.40
2018-02-25T17:27:49.429Z,25.30
2018-02-25T17:30:23.188Z,25.10
2018-02-25T17:32:57.064Z,24.80
2018-02-25T17:35:30.952Z,25.40
2018-02-25T17:38:04.944Z,26.30
2018-02-25T17:40:39.432Z,26.60
2018-02-25T17:43:13.578Z,26.50
2018-02-25T17:45:47.349Z,25.50
2018-02-25T17:48:21.066Z,26.00
2018-02-25T17:50:54.798Z,25.40
2018-02-25T17:53:28.794Z,25.40
2018-02-25T17:56:02.508Z,25.70
2018-02-25T17:58:36.303Z,25.50
2018-02-25T18:01:09.966Z,25.30
2018-02-25T18:03:44.226Z,25.80
2018-02-25T18:06:18.052Z,25.70
2018-02-25T18:08:52.091Z,26.00
2018-02-25T18:11:25.954Z,26.00
2018-02-25T18:14:00.583Z,26.00
2018-02-25T18:16:34.899Z,26.00
2018-02-25T18:19:10.333Z,26.50
2018-02-25T18:21:44.261Z,25.80
2018-02-25T18:24:18.843Z,25.60
2018-02-25T18:26:52.934Z,25.90
2018-02-25T18:29:26.793Z,26.00
2018-02-25T18:32:00.805Z,26.10
2018-02-25T18:34:35.424Z,25.90
2018-02-25T18:37:09.445Z,25.70
2018-02-25T18:39:43.232Z,26.20
2018-02-25T18:42:17.224Z,25.70
2018-02-25T18:44:50.962Z,26.30
2018-02-25T18:47:24.820Z,25.80
2018-02-25T18:49:58.719Z,25.30
2018-02-25T18:52:33.361Z,25.90
2018-02-25T18:55:08.021Z,25.60
2018-02-25T18:57:42.454Z,25.70
2018-02-25T19:00:16.346Z,25.50
2018-02-25T19:02:51.072Z,25.80
2018-02-25T19:05:25.325Z,25.30
2018-02-25T19:07:59.252Z,25.50
2018-02-25T19:10:33.070Z,25.50
2018-02-25T19:13:06.885Z,25.40
2018-02-25T19:15:40.781Z,25.30
2018-02-25T19:18:14.621Z,25.70
2018-02-25T19:20:48.774Z,25.90
2018-02-25T19:23:22.445Z,25.70
2018-02-25T19:25:57.015Z,25.70
2018-02-25T19:28:31.635Z,26.00
2018-02-25T19:31:06.626Z,26.50
2018-02-25T19:33:41.731Z,26.80
2018-02-25T19:36:22.647Z,26.40
2018-02-25T19:39:02.189Z,26.40
2018-02-25T19:41:42.532Z,26.50
2018-02-25T19:44:16.849Z,26.20
2018-02-25T19:46:51.667Z,26.60
2018-02-25T19:49:26.275Z,26.50
2018-02-25T19:52:00.246Z,27.00
2018-02-25T19:54:34.728Z,27.50
2018-02-25T19:57:08.876Z,27.60
2018-02-25T19:59:43.566Z,27.60
2018-02-25T20:02:17.713Z,27.60
2018-02-25T20:04:51.583Z,27.80
2018-02-25T20:07:27.162Z,27.70
2018-02-25T20:10:01.330Z,27.70
2018-02-25T20:12:35.838Z,27.20
2018-02-25T20:15:09.998Z,27.60
2018-02-25T20:17:43.846Z,27.60
2018-02-25T20:20:19.300Z,28.00
2018-02-25T20:22:53.862Z,28.00
2018-02-25T20:25:27.933Z,28.00
2018-02-25T20:28:01.610Z,27.60
2018-02-25T20:30:35.619Z,27.40
2018-02-25T20:33:09.383Z,27.50
2018-02-25T20:35:43.189Z,28.40
2018-02-25T20:38:17.086Z,27.90
2018-02-25T20:40:50.903Z,27.90
2018-02-25T20:43:25.645Z,28.40
2018-02-25T20:45:59.373Z,28.40
2018-02-25T20:48:33.390Z,28.00
2018-02-25T20:51:08.259Z,28.40
2018-02-25T20:53:44.035Z,28.00
2018-02-25T20:56:18.675Z,27.90
2018-02-25T20:58:53.175Z,28.00
2018-02-25T21:01:27.366Z,28.20
2018-02-25T21:04:01.170Z,28.70
2018-02-25T21:06:35.329Z,28.70
2018-02-25T21:09:09.442Z,28.90
2018-02-25T21:11:44.131Z,28.40
2018-02-25T21:14:17.943Z,29.10
2018-02-25T21:16:51.659Z,28.80
2018-02-25T21:19:25.510Z,28.60
2018-02-25T21:22:00.063Z,28.70
2018-02-25T21:24:34.705Z,29.30
2018-02-25T21:27:08.947Z,29.20
2018-02-25T21:29:43.473Z,29.90
2018-02-25T21:32:18.390Z,29.70
2018-02-25T21:34:52.621Z,29.70
2018-02-25T21:37:26.504Z,29.90
2018-02-25T21:40:01.158Z,29.40
2018-02-25T21:42:36.786Z,29.80
2018-02-25T21:45:11.495Z,29.80
2018-02-25T21:47:45.283Z,30.30
2018-02-25T21:50:19.117Z,30.50
2018-02-25T21:52:52.830Z,30.50
2018-02-25T21:55:26.799Z,30.60
2018-02-25T21:58:07.087Z,31.20
2018-02-25T22:00:47.189Z,31.20
2018-02-25T22:03:27.371Z,31.80
2018-02-25T22:06:01.397Z,31.40
2018-02-25T22:08:35.197Z,31.80
2018-02-25T22:11:10.701Z,31.30
2018-02-25T22:13:44.575Z,31.00
2018-02-25T22:16:18.643Z,31.10
2018-02-25T22:18:54.191Z,31.50
2018-02-25T22:21:28.242Z,31.50
2018-02-25T22:24:02.169Z,31.10
2018-02-25T22:26:36.052Z,30.90
2018-02-25T22:29:10.642Z,31.10
2018-02-25T22:31:44.349Z,32.00
2018-02-25T22:34:18.353Z,32.40
2018-02-25T22:36:53.222Z,32.80
2018-02-25T22:39:27.438Z,31.90
2018-02-25T22:42:01.495Z,33.00
2018-02-25T22:44:36.890Z,32.40
2018-02-25T22:47:10.935Z,32.30
2018-02-25T22:49:45.401Z,32.40
2018-02-25T22:52:19.195Z,32.30
2018-02-25T22:54:53.295Z,32.10
2018-02-25T22:57:28.802Z,32.40
2018-02-25T23:00:02.967Z,32.40
2018-02-25T23:02:36.731Z,32.00
2018-02-25T23:05:11.485Z,32.50
2018-02-25T23:07:45.929Z,32.40
2018-02-25T23:10:20.059Z,32.60
2018-02-25T23:12:55.311Z,32.30
2018-02-25T23:15:29.917Z,32.20
2018-02-25T23:18:03.782Z,32.60
2018-02-25T23:20:37.647Z,32.50
2018-02-25T23:23:11.780Z,32.20
2018-02-25T23:25:45.405Z,32.30
2018-02-25T23:28:19.252Z,32.40
2018-02-25T23:30:53.153Z,32.40
2018-02-25T23:33:27.018Z,32.50
2018-02-25T23:36:00.697Z,32.60
2018-02-25T23:38:34.555Z,32.70
2018-02-25T23:41:09.074Z,33.00
2018-02-25T23:43:43.110Z,32.90
2018-02-25T23:46:16.855Z,33.20
2018-02-25T23:48:51.544Z,33.40
2018-02-25T23:51:25.626Z,33.40
2018-02-25T23:53:59.721Z,32.50
2018-02-25T23:56:34.543Z,33.70
2018-02-25T23:59:08.343Z,33.70
